createdAt,value
2023-02-05T00:04:34.845Z,3.70
2023-02-05T00:14:38.724Z,3.30
2023-02-05T00:24:42.507Z,3.30
2023-02-05T00:34:46.359Z,5.60
2023-02-05T00:44:50.207Z,4.40
2023-02-05T00:54:54.053Z,5.00
2023-02-05T01:04:58.095Z,4.10
2023-02-05T01:15:08.996Z,5.00
2023-02-05T01:25:13.316Z,5.80
2023-02-05T01:35:17.246Z,4.50
2023-02-05T01:45:29.854Z,4.60
2023-02-05T01:55:56.754Z,4.00
2023-02-05T02:06:05.070Z,3.90
2023-02-05T02:16:09.468Z,4.80
2023-02-05T02:26:22.648Z,4.10
2023-02-05T02:36:32.432Z,3.90
2023-02-05T02:46:41.897Z,3.80
2023-02-05T02:56:49.447Z,4.60
2023-02-05T03:06:58.090Z,5.90
2023-02-05T03:17:04.113Z,4.60
2023-02-05T03:27:08.334Z,4.30
2023-02-05T03:37:31.596Z,6.80
2023-02-05T03:48:01.666Z,4.20
2023-02-05T03:58:17.833Z,5.00
2023-02-05T04:08:22.942Z,5.50
2023-02-05T04:18:28.637Z,5.40
2023-02-05T04:28:33.230Z,4.20
2023-02-05T04:38:38.440Z,5.50
2023-02-05T04:48:42.096Z,4.80
2023-02-05T04:58:46.621Z,4.40
2023-02-05T05:08:50.721Z,5.90
2023-02-05T05:18:54.638Z,5.80
2023-02-05T05:29:26.090Z,5.60
2023-02-05T05:39:48.814Z,5.20
2023-02-05T05:50:33.484Z,9.80
2023-02-05T06:00:39.170Z,6.20
2023-02-05T06:10:49.812Z,6.00
2023-02-05T06:21:06.129Z,6.50
2023-02-05T06:31:12.470Z,7.20
2023-02-05T06:41:16.752Z,33.40
2023-02-05T06:51:20.950Z,13.90
2023-02-05T07:01:24.868Z,5.50
2023-02-05T07:11:28.710Z,6.50
2023-02-05T07:21:33.170Z,5.30
2023-02-05T07:32:01.166Z,5.10
2023-02-05T07:42:05.523Z,5.40
2023-02-05T07:52:14.067Z,5.10
2023-02-05T08:02:18.411Z,6.40
2023-02-05T08:12:22.528Z,6.60
2023-02-05T08:22:26.381Z,7.20
2023-02-05T08:32:30.375Z,5.50
2023-02-05T08:42:36.937Z,4.80
2023-02-05T08:52:41.602Z,5.90
2023-02-05T09:02:45.412Z,4.30
2023-02-05T09:12:52.204Z,16.00
2023-02-05T09:22:56.018Z,5.70
2023-02-05T09:32:59.915Z,4.70
2023-02-05T09:43:07.943Z,5.60
2023-02-05T09:53:18.219Z,4.70
2023-02-05T10:03:28.267Z,4.40
2023-02-05T10:13:45.313Z,5.70
2023-02-05T10:24:32.446Z,16.40
2023-02-05T10:34:49.579Z,5.80
2023-02-05T10:45:25.529Z,6.10
2023-02-05T10:55:29.488Z,9.40
2023-02-05T11:05:40.733Z,5.60
2023-02-05T11:16:00.996Z,5.80
2023-02-05T11:26:18.316Z,10.40
2023-02-05T11:36:25.478Z,13.20
2023-02-05T11:46:42.940Z,8.40
2023-02-05T11:57:05.616Z,8.70
2023-02-05T12:07:15.818Z,3.60
2023-02-05T12:17:34.993Z,5.10
2023-02-05T12:28:00.247Z,6.90
2023-02-05T12:38:38.325Z,6.90
2023-02-05T12:49:10.619Z,6.40
2023-02-05T12:59:33.299Z,7.30
2023-02-05T13:09:54.109Z,4.60
2023-02-05T13:20:18.176Z,6.60
2023-02-05T13:30:28.613Z,7.20
2023-02-05T13:40:44.107Z,9.90
2023-02-05T13:50:57.004Z,5.80
2023-02-05T14:01:32.288Z,8.50
2023-02-05T14:11:58.340Z,7.50
2023-02-05T14:22:07.644Z,7.20
2023-02-05T14:32:39.842Z,11.90
2023-02-05T14:42:43.482Z,10.30
2023-02-05T14:52:54.315Z,7.70
2023-02-05T15:03:01.054Z,14.70
2023-02-05T15:13:15.415Z,16.70
2023-02-05T15:23:46.650Z,32.00
2023-02-05T15:34:20.825Z,21.00
2023-02-05T15:44:30.434Z,18.90
2023-02-05T15:54:37.154Z,20.30
2023-02-05T16:04:41.169Z,90.20
2023-02-05T16:14:45.024Z,17.30
2023-02-05T16:24:51.903Z,12.80
2023-02-05T16:34:56.841Z,11.40
2023-02-05T16:45:21.904Z,10.40
2023-02-05T16:55:26.122Z,11.20
2023-02-05T17:05:35.816Z,13.70
2023-02-05T17:15:40.721Z,16.50
2023-02-05T17:25:47.233Z,14.50
2023-02-05T17:35:51.751Z,16.20
2023-02-05T17:45:55.475Z,16.30
2023-02-05T17:55:59.393Z,17.60
2023-02-05T18:06:03.338Z,35.20
2023-02-05T18:16:07.698Z,32.10
2023-02-05T18:26:11.768Z,157.50
2023-02-05T18:36:15.822Z,105.10
2023-02-05T18:46:21.462Z,53.80
2023-02-05T18:56:27.954Z,70.50
2023-02-05T19:06:33.340Z,54.10
2023-02-05T19:16:40.167Z,39.00
